RYR3WR EDLW-ENBR
Flight info
| Callsign | RYR3WR |
|---|---|
| Flight time | 1h 33m |
| Altitude | 37000 |
| Route | OSN8Q OSN DCT EXPUH M170 BASUM DCT IPSUB/N0454F380 DCT BADAB |
| Aircraft | B738/M-SDE2E3FGHIRWXY/LB1 |
Departure
| Time | 2026-05-07 11:57 |
|---|---|
| Airport | Dortmund Airport (EDLW) |
Arrival
| Time | 2026-05-07 13:31 |
|---|---|
| Airport | Bergen Airport, Flesland (ENBR) |
| Time | Latitude | Longitude | Altitude | Speed | Heading |
|---|---|---|---|---|---|
| 2026-05-07 11:36 | 51.51471 | 7.61123 | 436 ft | 0 kts | 145° |
| 2026-05-07 11:49 | 51.51472 | 7.61122 | 417 ft | 1 kts | 145° |
| 2026-05-07 11:49 | 51.51486 | 7.61107 | 424 ft | 3 kts | 141° |
| 2026-05-07 11:49 | 51.51499 | 7.61085 | 424 ft | 3 kts | 115° |
| 2026-05-07 11:50 | 51.51503 | 7.61056 | 423 ft | 3 kts | 85° |
| 2026-05-07 11:50 | 51.51501 | 7.61036 | 425 ft | 3 kts | 70° |
| 2026-05-07 11:50 | 51.51495 | 7.61014 | 426 ft | 0 kts | 60° |
| 2026-05-07 11:53 | 51.51499 | 7.61025 | 425 ft | 3 kts | 60° |
| 2026-05-07 11:53 | 51.51530 | 7.61057 | 427 ft | 8 kts | 7° |
| 2026-05-07 11:54 | 51.51569 | 7.60995 | 427 ft | 11 kts | 261° |
| 2026-05-07 11:54 | 51.51534 | 7.60888 | 427 ft | 11 kts | 240° |
| 2026-05-07 11:54 | 51.51494 | 7.60776 | 429 ft | 12 kts | 240° |
| 2026-05-07 11:54 | 51.51452 | 7.60656 | 426 ft | 12 kts | 240° |
| 2026-05-07 11:55 | 51.51413 | 7.60544 | 424 ft | 11 kts | 240° |
| 2026-05-07 11:55 | 51.51382 | 7.60458 | 430 ft | 8 kts | 241° |
| 2026-05-07 11:55 | 51.51360 | 7.60382 | 427 ft | 7 kts | 258° |
| 2026-05-07 11:55 | 51.51374 | 7.60306 | 428 ft | 7 kts | 308° |
| 2026-05-07 11:56 | 51.51415 | 7.60260 | 428 ft | 8 kts | 330° |
| 2026-05-07 11:56 | 51.51462 | 7.60227 | 418 ft | 8 kts | 352° |
| 2026-05-07 11:56 | 51.51501 | 7.60287 | 419 ft | 8 kts | 61° |
| 2026-05-07 11:56 | 51.51566 | 7.60474 | 420 ft | 53 kts | 60° |
| 2026-05-07 11:57 | 51.51906 | 7.61432 | 413 ft | 138 kts | 60° |
| 2026-05-07 11:57 | 51.52455 | 7.62979 | 848 ft | 174 kts | 60° |
| 2026-05-07 11:57 | 51.53045 | 7.64808 | 1777 ft | 193 kts | 61° |
| 2026-05-07 11:57 | 51.53658 | 7.66796 | 2674 ft | 200 kts | 61° |
| 2026-05-07 11:58 | 51.54310 | 7.68762 | 3520 ft | 201 kts | 57° |
| 2026-05-07 11:58 | 51.55069 | 7.70778 | 3917 ft | 223 kts | 56° |
| 2026-05-07 11:58 | 51.55948 | 7.73014 | 4209 ft | 252 kts | 56° |
| 2026-05-07 11:58 | 51.56933 | 7.75507 | 4822 ft | 267 kts | 56° |
| 2026-05-07 11:59 | 51.57916 | 7.78022 | 5938 ft | 267 kts | 56° |
| 2026-05-07 11:59 | 51.59104 | 7.80377 | 6690 ft | 275 kts | 37° |
| 2026-05-07 11:59 | 51.60841 | 7.81480 | 7678 ft | 272 kts | 2° |
| 2026-05-07 11:59 | 51.62657 | 7.80887 | 8842 ft | 265 kts | 335° |
| 2026-05-07 12:00 | 51.64311 | 7.79640 | 9863 ft | 267 kts | 337° |
| 2026-05-07 12:00 | 51.66091 | 7.78515 | 10377 ft | 284 kts | 340° |
| 2026-05-07 12:00 | 51.68067 | 7.77475 | 10545 ft | 312 kts | 343° |
| 2026-05-07 12:00 | 51.70243 | 7.76497 | 10766 ft | 337 kts | 345° |
| 2026-05-07 12:01 | 51.72569 | 7.75581 | 11274 ft | 350 kts | 346° |
| 2026-05-07 12:01 | 51.74958 | 7.74704 | 12071 ft | 353 kts | 347° |
| 2026-05-07 12:01 | 51.77363 | 7.73840 | 12905 ft | 356 kts | 347° |
| 2026-05-07 12:01 | 51.79860 | 7.73631 | 13594 ft | 365 kts | 7° |
| 2026-05-07 12:02 | 51.82282 | 7.74880 | 14351 ft | 371 kts | 27° |
| 2026-05-07 12:02 | 51.84383 | 7.77349 | 15043 ft | 376 kts | 39° |
| 2026-05-07 12:02 | 51.86373 | 7.80152 | 15695 ft | 382 kts | 40° |
| 2026-05-07 12:02 | 51.88363 | 7.83041 | 16367 ft | 387 kts | 41° |
| 2026-05-07 12:03 | 51.90372 | 7.85970 | 17051 ft | 391 kts | 41° |
| 2026-05-07 12:03 | 51.92408 | 7.88921 | 17729 ft | 395 kts | 41° |
| 2026-05-07 12:03 | 51.94471 | 7.91893 | 18383 ft | 399 kts | 40° |
| 2026-05-07 12:03 | 51.96559 | 7.94884 | 18965 ft | 403 kts | 40° |
| 2026-05-07 12:04 | 51.98669 | 7.97899 | 19554 ft | 406 kts | 40° |
| 2026-05-07 12:04 | 52.00796 | 8.00937 | 20117 ft | 410 kts | 40° |
| 2026-05-07 12:04 | 52.02943 | 8.04006 | 20677 ft | 413 kts | 41° |
| 2026-05-07 12:04 | 52.05111 | 8.07107 | 21232 ft | 417 kts | 41° |
| 2026-05-07 12:05 | 52.07294 | 8.10234 | 21761 ft | 421 kts | 41° |
| 2026-05-07 12:05 | 52.09499 | 8.13399 | 22286 ft | 424 kts | 41° |
| 2026-05-07 12:05 | 52.11695 | 8.16555 | 22780 ft | 428 kts | 41° |
| 2026-05-07 12:05 | 52.13206 | 8.18730 | 23147 ft | 430 kts | 41° |
| 2026-05-07 12:06 | 52.16186 | 8.23022 | 23801 ft | 434 kts | 41° |
| 2026-05-07 12:06 | 52.18459 | 8.26301 | 24251 ft | 436 kts | 41° |
| 2026-05-07 12:06 | 52.20732 | 8.29587 | 24721 ft | 438 kts | 41° |
| 2026-05-07 12:06 | 52.23019 | 8.32898 | 25105 ft | 441 kts | 41° |
| 2026-05-07 12:07 | 52.25323 | 8.36234 | 25530 ft | 443 kts | 41° |
| 2026-05-07 12:07 | 52.27631 | 8.39579 | 25964 ft | 445 kts | 41° |
| 2026-05-07 12:07 | 52.29958 | 8.42954 | 26356 ft | 448 kts | 41° |
| 2026-05-07 12:07 | 52.32270 | 8.46309 | 27056 ft | 442 kts | 41° |
| 2026-05-07 12:08 | 52.34556 | 8.49628 | 27739 ft | 438 kts | 41° |
| 2026-05-07 12:08 | 52.36835 | 8.52940 | 28117 ft | 441 kts | 41° |
| 2026-05-07 12:08 | 52.39152 | 8.56309 | 28232 ft | 450 kts | 41° |
| 2026-05-07 12:08 | 52.41507 | 8.59734 | 28430 ft | 456 kts | 41° |
| 2026-05-07 12:09 | 52.43894 | 8.63208 | 28635 ft | 461 kts | 41° |
| 2026-05-07 12:09 | 52.46295 | 8.66708 | 29000 ft | 462 kts | 41° |
| 2026-05-07 12:09 | 52.48699 | 8.70213 | 29395 ft | 463 kts | 41° |
| 2026-05-07 12:09 | 52.51108 | 8.73732 | 29769 ft | 464 kts | 41° |
| 2026-05-07 12:10 | 52.53516 | 8.77251 | 30199 ft | 463 kts | 41° |
| 2026-05-07 12:10 | 52.55916 | 8.80762 | 30591 ft | 461 kts | 41° |
| 2026-05-07 12:10 | 52.58308 | 8.84273 | 30970 ft | 460 kts | 41° |
| 2026-05-07 12:10 | 52.60691 | 8.87782 | 31332 ft | 460 kts | 41° |
| 2026-05-07 12:11 | 52.63149 | 8.91112 | 31662 ft | 459 kts | 31° |
| 2026-05-07 12:11 | 52.66087 | 8.93076 | 31979 ft | 457 kts | 9° |
| 2026-05-07 12:11 | 52.69239 | 8.93199 | 32363 ft | 453 kts | 349° |
| 2026-05-07 12:11 | 52.72203 | 8.91570 | 32763 ft | 449 kts | 333° |
| 2026-05-07 12:12 | 52.74914 | 8.89172 | 33146 ft | 448 kts | 330° |
| 2026-05-07 12:12 | 52.77663 | 8.86739 | 33430 ft | 449 kts | 333° |
| 2026-05-07 12:12 | 52.80506 | 8.84603 | 33736 ft | 449 kts | 338° |
| 2026-05-07 12:12 | 52.83443 | 8.82816 | 34076 ft | 448 kts | 341° |
| 2026-05-07 12:13 | 52.86419 | 8.81331 | 34380 ft | 448 kts | 344° |
| 2026-05-07 12:13 | 52.89441 | 8.80030 | 34578 ft | 449 kts | 346° |
| 2026-05-07 12:13 | 52.92483 | 8.78835 | 34743 ft | 451 kts | 346° |
| 2026-05-07 12:13 | 52.95557 | 8.77678 | 34951 ft | 452 kts | 346° |
| 2026-05-07 12:14 | 52.98624 | 8.76537 | 35170 ft | 453 kts | 346° |
| 2026-05-07 12:14 | 53.01705 | 8.75385 | 35388 ft | 454 kts | 346° |
| 2026-05-07 12:14 | 53.04781 | 8.74224 | 35590 ft | 454 kts | 346° |
| 2026-05-07 12:14 | 53.07872 | 8.73046 | 35804 ft | 455 kts | 346° |
| 2026-05-07 12:15 | 53.10955 | 8.71862 | 36003 ft | 456 kts | 346° |
| 2026-05-07 12:15 | 53.14049 | 8.70667 | 36214 ft | 456 kts | 346° |
| 2026-05-07 12:15 | 53.17142 | 8.69469 | 36440 ft | 457 kts | 346° |
| 2026-05-07 12:15 | 53.20239 | 8.68267 | 36645 ft | 457 kts | 346° |
| 2026-05-07 12:16 | 53.23342 | 8.67060 | 36834 ft | 458 kts | 345° |
| 2026-05-07 12:16 | 53.26445 | 8.65851 | 37044 ft | 458 kts | 346° |
| 2026-05-07 12:16 | 53.29552 | 8.64640 | 37251 ft | 458 kts | 345° |
| 2026-05-07 12:16 | 53.32616 | 8.63444 | 37447 ft | 459 kts | 345° |
| 2026-05-07 12:17 | 53.35763 | 8.62214 | 37649 ft | 459 kts | 345° |
| 2026-05-07 12:17 | 53.38878 | 8.60995 | 37845 ft | 459 kts | 345° |
| 2026-05-07 12:17 | 53.41951 | 8.59790 | 38024 ft | 459 kts | 345° |
| 2026-05-07 12:18 | 53.48188 | 8.57339 | 38069 ft | 461 kts | 345° |
| 2026-05-07 12:18 | 53.54433 | 8.54878 | 38076 ft | 460 kts | 345° |
| 2026-05-07 12:19 | 53.60652 | 8.52420 | 38079 ft | 459 kts | 345° |
| 2026-05-07 12:19 | 53.66868 | 8.49955 | 38077 ft | 458 kts | 345° |
| 2026-05-07 12:20 | 53.73070 | 8.47489 | 38077 ft | 458 kts | 345° |
| 2026-05-07 12:20 | 53.79265 | 8.45017 | 38074 ft | 457 kts | 345° |
| 2026-05-07 12:21 | 53.85450 | 8.42542 | 38078 ft | 456 kts | 345° |
| 2026-05-07 12:21 | 53.90587 | 8.40481 | 38077 ft | 456 kts | 345° |
| 2026-05-07 12:22 | 53.97812 | 8.37573 | 38087 ft | 456 kts | 345° |
| 2026-05-07 12:22 | 54.03989 | 8.35079 | 38091 ft | 456 kts | 345° |
| 2026-05-07 12:23 | 54.10169 | 8.32575 | 38095 ft | 456 kts | 345° |
| 2026-05-07 12:23 | 54.16338 | 8.30069 | 38094 ft | 456 kts | 345° |
| 2026-05-07 12:24 | 54.22516 | 8.27551 | 38094 ft | 456 kts | 345° |
| 2026-05-07 12:24 | 54.28692 | 8.25027 | 38098 ft | 456 kts | 345° |
| 2026-05-07 12:25 | 54.34858 | 8.22498 | 38098 ft | 456 kts | 345° |
| 2026-05-07 12:25 | 54.40996 | 8.19974 | 38105 ft | 456 kts | 345° |
| 2026-05-07 12:26 | 54.47163 | 8.17430 | 38109 ft | 456 kts | 345° |
| 2026-05-07 12:26 | 54.53368 | 8.14861 | 38105 ft | 455 kts | 345° |
| 2026-05-07 12:27 | 54.57444 | 8.13170 | 38109 ft | 455 kts | 345° |
| 2026-05-07 12:27 | 54.65633 | 8.09762 | 38111 ft | 454 kts | 345° |
| 2026-05-07 12:28 | 54.71779 | 8.07195 | 38104 ft | 454 kts | 345° |
| 2026-05-07 12:28 | 54.77913 | 8.04624 | 38104 ft | 454 kts | 345° |
| 2026-05-07 12:29 | 54.84047 | 8.02045 | 38107 ft | 453 kts | 345° |
| 2026-05-07 12:29 | 54.90175 | 7.99461 | 38109 ft | 453 kts | 345° |
| 2026-05-07 12:30 | 54.96296 | 7.96872 | 38110 ft | 452 kts | 345° |
| 2026-05-07 12:30 | 55.02403 | 7.94282 | 38112 ft | 452 kts | 345° |
| 2026-05-07 12:31 | 55.08513 | 7.91687 | 38112 ft | 452 kts | 345° |
| 2026-05-07 12:31 | 55.14618 | 7.89087 | 38115 ft | 451 kts | 345° |
| 2026-05-07 12:32 | 55.20726 | 7.86477 | 38116 ft | 451 kts | 345° |
| 2026-05-07 12:32 | 55.26828 | 7.83861 | 38117 ft | 451 kts | 345° |
| 2026-05-07 12:33 | 55.35969 | 7.79926 | 38116 ft | 451 kts | 345° |
| 2026-05-07 12:33 | 55.42054 | 7.77296 | 38115 ft | 450 kts | 345° |
| 2026-05-07 12:34 | 55.48141 | 7.74657 | 38115 ft | 450 kts | 345° |
| 2026-05-07 12:34 | 55.54226 | 7.72010 | 38116 ft | 450 kts | 345° |
| 2026-05-07 12:35 | 55.60266 | 7.69375 | 38117 ft | 450 kts | 345° |
| 2026-05-07 12:35 | 55.66338 | 7.66717 | 38122 ft | 449 kts | 345° |
| 2026-05-07 12:36 | 55.72403 | 7.64054 | 38120 ft | 449 kts | 344° |
| 2026-05-07 12:36 | 55.78468 | 7.61382 | 38114 ft | 449 kts | 344° |
| 2026-05-07 12:37 | 55.84528 | 7.58704 | 38114 ft | 449 kts | 344° |
| 2026-05-07 12:37 | 55.90592 | 7.56016 | 38116 ft | 448 kts | 344° |
| 2026-05-07 12:38 | 55.96645 | 7.53323 | 38121 ft | 448 kts | 344° |
| 2026-05-07 12:38 | 56.01678 | 7.51078 | 38121 ft | 448 kts | 344° |
| 2026-05-07 12:39 | 56.07732 | 7.48369 | 38117 ft | 448 kts | 344° |
| 2026-05-07 12:39 | 56.13787 | 7.45651 | 38117 ft | 448 kts | 344° |
| 2026-05-07 12:40 | 56.19837 | 7.42926 | 38114 ft | 448 kts | 344° |
| 2026-05-07 12:40 | 56.25893 | 7.40190 | 38121 ft | 449 kts | 343° |
| 2026-05-07 12:41 | 56.31944 | 7.37447 | 38125 ft | 449 kts | 343° |
| 2026-05-07 12:41 | 56.38004 | 7.34691 | 38119 ft | 449 kts | 343° |
| 2026-05-07 12:42 | 56.44058 | 7.31929 | 38120 ft | 449 kts | 343° |
| 2026-05-07 12:42 | 56.50113 | 7.29157 | 38119 ft | 449 kts | 343° |
| 2026-05-07 12:43 | 56.56175 | 7.26373 | 38120 ft | 449 kts | 343° |
| 2026-05-07 12:43 | 56.62233 | 7.23582 | 38114 ft | 449 kts | 343° |
| 2026-05-07 12:44 | 56.68292 | 7.20780 | 38116 ft | 449 kts | 343° |
| 2026-05-07 12:44 | 56.74353 | 7.17969 | 38116 ft | 449 kts | 343° |
| 2026-05-07 12:45 | 56.80373 | 7.15167 | 38121 ft | 449 kts | 343° |
| 2026-05-07 12:45 | 56.86471 | 7.12319 | 38116 ft | 449 kts | 343° |
| 2026-05-07 12:46 | 56.92483 | 7.09503 | 38117 ft | 449 kts | 343° |
| 2026-05-07 12:46 | 56.98568 | 7.06642 | 38120 ft | 449 kts | 343° |
| 2026-05-07 12:47 | 57.04613 | 7.03791 | 38117 ft | 448 kts | 342° |
| 2026-05-07 12:47 | 57.10645 | 7.00936 | 38117 ft | 448 kts | 342° |
| 2026-05-07 12:48 | 57.16673 | 6.98073 | 38118 ft | 447 kts | 342° |
| 2026-05-07 12:48 | 57.22653 | 6.95224 | 38114 ft | 446 kts | 342° |
| 2026-05-07 12:49 | 57.28659 | 6.92353 | 38122 ft | 446 kts | 342° |
| 2026-05-07 12:49 | 57.34659 | 6.89475 | 38125 ft | 445 kts | 342° |
| 2026-05-07 12:50 | 57.40654 | 6.86589 | 38121 ft | 445 kts | 342° |
| 2026-05-07 12:50 | 57.46637 | 6.83699 | 38122 ft | 444 kts | 342° |
| 2026-05-07 12:51 | 57.52611 | 6.80805 | 38127 ft | 444 kts | 342° |
| 2026-05-07 12:51 | 57.58585 | 6.77900 | 38128 ft | 443 kts | 342° |
| 2026-05-07 12:52 | 57.64562 | 6.74984 | 38127 ft | 443 kts | 342° |
| 2026-05-07 12:52 | 57.70527 | 6.72064 | 38128 ft | 443 kts | 342° |
| 2026-05-07 12:53 | 57.76491 | 6.69134 | 38130 ft | 443 kts | 342° |
| 2026-05-07 12:53 | 57.82450 | 6.66197 | 38128 ft | 443 kts | 342° |
| 2026-05-07 12:54 | 57.88417 | 6.63246 | 38127 ft | 443 kts | 342° |
| 2026-05-07 12:54 | 57.94379 | 6.60287 | 38125 ft | 443 kts | 341° |
| 2026-05-07 12:55 | 58.00309 | 6.57334 | 38126 ft | 443 kts | 341° |
| 2026-05-07 12:55 | 58.06266 | 6.54357 | 38126 ft | 443 kts | 341° |
| 2026-05-07 12:56 | 58.12218 | 6.51372 | 38126 ft | 443 kts | 341° |
| 2026-05-07 12:56 | 58.18177 | 6.48374 | 38121 ft | 443 kts | 341° |
| 2026-05-07 12:57 | 58.24133 | 6.45367 | 38120 ft | 443 kts | 341° |
| 2026-05-07 12:57 | 58.30087 | 6.42371 | 38120 ft | 443 kts | 342° |
| 2026-05-07 12:58 | 58.36103 | 6.39757 | 38119 ft | 442 kts | 341° |
| 2026-05-07 12:58 | 58.42017 | 6.36536 | 38121 ft | 442 kts | 340° |
| 2026-05-07 12:59 | 58.47929 | 6.33304 | 38107 ft | 442 kts | 340° |
| 2026-05-07 12:59 | 58.53869 | 6.30186 | 38100 ft | 443 kts | 340° |
| 2026-05-07 13:00 | 58.59815 | 6.27118 | 38100 ft | 442 kts | 340° |
| 2026-05-07 13:00 | 58.65759 | 6.24050 | 38105 ft | 442 kts | 340° |
| 2026-05-07 13:01 | 58.71700 | 6.20968 | 38103 ft | 442 kts | 340° |
| 2026-05-07 13:01 | 58.77602 | 6.17892 | 38095 ft | 442 kts | 340° |
| 2026-05-07 13:02 | 58.80571 | 6.16341 | 37874 ft | 445 kts | 340° |
| 2026-05-07 13:02 | 58.83569 | 6.14769 | 37327 ft | 446 kts | 340° |
| 2026-05-07 13:02 | 58.86545 | 6.13211 | 36757 ft | 442 kts | 340° |
| 2026-05-07 13:02 | 58.89505 | 6.11659 | 36166 ft | 440 kts | 339° |
| 2026-05-07 13:03 | 58.92459 | 6.10104 | 35532 ft | 440 kts | 339° |
| 2026-05-07 13:03 | 58.95404 | 6.08547 | 34857 ft | 439 kts | 339° |
| 2026-05-07 13:03 | 58.98350 | 6.06992 | 34199 ft | 438 kts | 339° |
| 2026-05-07 13:03 | 59.01282 | 6.05441 | 33427 ft | 437 kts | 339° |
| 2026-05-07 13:04 | 59.04217 | 6.03887 | 32688 ft | 436 kts | 339° |
| 2026-05-07 13:04 | 59.07144 | 6.02337 | 31964 ft | 436 kts | 339° |
| 2026-05-07 13:04 | 59.10079 | 6.01022 | 31669 ft | 428 kts | 342° |
| 2026-05-07 13:04 | 59.12998 | 5.99914 | 31107 ft | 425 kts | 343° |
| 2026-05-07 13:05 | 59.15890 | 5.98880 | 30637 ft | 420 kts | 343° |
| 2026-05-07 13:05 | 59.18775 | 5.97842 | 29752 ft | 424 kts | 343° |
| 2026-05-07 13:05 | 59.21675 | 5.96771 | 28968 ft | 424 kts | 342° |
| 2026-05-07 13:05 | 59.24562 | 5.95688 | 28294 ft | 421 kts | 342° |
| 2026-05-07 13:06 | 59.27426 | 5.94600 | 27718 ft | 417 kts | 342° |
| 2026-05-07 13:06 | 59.30262 | 5.93514 | 27189 ft | 412 kts | 342° |
| 2026-05-07 13:06 | 59.33056 | 5.92438 | 26662 ft | 407 kts | 342° |
| 2026-05-07 13:06 | 59.35822 | 5.91370 | 26148 ft | 403 kts | 342° |
| 2026-05-07 13:07 | 59.38519 | 5.90328 | 25663 ft | 399 kts | 342° |
| 2026-05-07 13:07 | 59.41235 | 5.89279 | 25151 ft | 395 kts | 342° |
| 2026-05-07 13:07 | 59.43924 | 5.88280 | 24659 ft | 394 kts | 345° |
| 2026-05-07 13:07 | 59.46647 | 5.87663 | 24177 ft | 393 kts | 348° |
| 2026-05-07 13:08 | 59.49370 | 5.87275 | 23679 ft | 392 kts | 350° |
| 2026-05-07 13:08 | 59.52091 | 5.86928 | 23099 ft | 390 kts | 350° |
| 2026-05-07 13:08 | 59.54787 | 5.86561 | 22590 ft | 386 kts | 349° |
| 2026-05-07 13:08 | 59.57452 | 5.86166 | 22101 ft | 382 kts | 349° |
| 2026-05-07 13:09 | 59.60078 | 5.85749 | 21649 ft | 377 kts | 349° |
| 2026-05-07 13:09 | 59.62691 | 5.85319 | 21164 ft | 375 kts | 349° |
| 2026-05-07 13:09 | 59.65291 | 5.84889 | 20678 ft | 373 kts | 349° |
| 2026-05-07 13:09 | 59.67858 | 5.84464 | 20225 ft | 369 kts | 349° |
| 2026-05-07 13:10 | 59.70412 | 5.84042 | 19783 ft | 367 kts | 349° |
| 2026-05-07 13:10 | 59.72953 | 5.83623 | 19310 ft | 365 kts | 349° |
| 2026-05-07 13:10 | 59.75473 | 5.83206 | 18860 ft | 363 kts | 350° |
| 2026-05-07 13:10 | 59.77980 | 5.82791 | 18397 ft | 360 kts | 350° |
| 2026-05-07 13:11 | 59.80474 | 5.82378 | 17907 ft | 358 kts | 350° |
| 2026-05-07 13:11 | 59.82946 | 5.81921 | 17421 ft | 355 kts | 347° |
| 2026-05-07 13:11 | 59.85352 | 5.81174 | 16983 ft | 350 kts | 345° |
| 2026-05-07 13:11 | 59.87750 | 5.80277 | 16528 ft | 348 kts | 344° |
| 2026-05-07 13:12 | 59.90113 | 5.79363 | 16102 ft | 346 kts | 344° |
| 2026-05-07 13:12 | 59.92481 | 5.78458 | 15647 ft | 345 kts | 345° |
| 2026-05-07 13:12 | 59.94830 | 5.77580 | 15212 ft | 342 kts | 345° |
| 2026-05-07 13:12 | 59.97164 | 5.76721 | 14783 ft | 340 kts | 345° |
| 2026-05-07 13:13 | 59.99489 | 5.75872 | 14366 ft | 338 kts | 346° |
| 2026-05-07 13:13 | 60.01799 | 5.75033 | 13932 ft | 337 kts | 346° |
| 2026-05-07 13:13 | 60.04104 | 5.74197 | 13471 ft | 336 kts | 346° |
| 2026-05-07 13:13 | 60.06401 | 5.73366 | 13044 ft | 334 kts | 346° |
| 2026-05-07 13:14 | 60.08675 | 5.72538 | 12629 ft | 331 kts | 346° |
| 2026-05-07 13:14 | 60.10931 | 5.71716 | 12215 ft | 328 kts | 346° |
| 2026-05-07 13:14 | 60.13174 | 5.70898 | 11805 ft | 326 kts | 347° |
| 2026-05-07 13:14 | 60.15407 | 5.70178 | 11440 ft | 324 kts | 349° |
| 2026-05-07 13:15 | 60.17643 | 5.69556 | 11031 ft | 326 kts | 349° |
| 2026-05-07 13:15 | 60.19898 | 5.68948 | 10773 ft | 325 kts | 350° |
| 2026-05-07 13:15 | 60.22107 | 5.68352 | 10613 ft | 315 kts | 350° |
| 2026-05-07 13:15 | 60.24209 | 5.67783 | 10496 ft | 302 kts | 350° |
| 2026-05-07 13:16 | 60.26266 | 5.67218 | 10401 ft | 297 kts | 350° |
| 2026-05-07 13:16 | 60.28314 | 5.66662 | 10254 ft | 297 kts | 349° |
| 2026-05-07 13:16 | 60.30358 | 5.66085 | 10127 ft | 295 kts | 349° |
| 2026-05-07 13:16 | 60.32390 | 5.65508 | 9827 ft | 294 kts | 350° |
| 2026-05-07 13:17 | 60.34406 | 5.64937 | 9511 ft | 292 kts | 350° |
| 2026-05-07 13:17 | 60.36406 | 5.64371 | 9217 ft | 288 kts | 350° |
| 2026-05-07 13:17 | 60.38384 | 5.63811 | 8905 ft | 285 kts | 350° |
| 2026-05-07 13:17 | 60.40339 | 5.63255 | 8648 ft | 282 kts | 351° |
| 2026-05-07 13:18 | 60.42265 | 5.62709 | 8420 ft | 277 kts | 351° |
| 2026-05-07 13:18 | 60.44131 | 5.62180 | 8309 ft | 268 kts | 351° |
| 2026-05-07 13:18 | 60.45948 | 5.61667 | 8183 ft | 255 kts | 351° |
| 2026-05-07 13:18 | 60.47688 | 5.61178 | 8080 ft | 250 kts | 352° |
| 2026-05-07 13:19 | 60.49412 | 5.61049 | 8056 ft | 245 kts | 360° |
| 2026-05-07 13:19 | 60.51105 | 5.61132 | 8055 ft | 245 kts | 0° |
| 2026-05-07 13:19 | 60.52821 | 5.61223 | 8056 ft | 248 kts | 0° |
| 2026-05-07 13:19 | 60.54546 | 5.60780 | 7942 ft | 253 kts | 340° |
| 2026-05-07 13:20 | 60.56203 | 5.59532 | 7789 ft | 255 kts | 338° |
| 2026-05-07 13:20 | 60.57863 | 5.58300 | 7606 ft | 252 kts | 339° |
| 2026-05-07 13:20 | 60.59432 | 5.56847 | 7396 ft | 246 kts | 323° |
| 2026-05-07 13:20 | 60.60770 | 5.54719 | 7252 ft | 241 kts | 318° |
| 2026-05-07 13:21 | 60.62066 | 5.52483 | 6961 ft | 247 kts | 318° |
| 2026-05-07 13:21 | 60.63344 | 5.50199 | 6783 ft | 242 kts | 310° |
| 2026-05-07 13:21 | 60.64305 | 5.47423 | 6623 ft | 238 kts | 298° |
| 2026-05-07 13:21 | 60.65131 | 5.44489 | 6411 ft | 240 kts | 298° |
| 2026-05-07 13:22 | 60.65959 | 5.41529 | 6167 ft | 241 kts | 297° |
| 2026-05-07 13:22 | 60.66576 | 5.38385 | 5882 ft | 238 kts | 280° |
| 2026-05-07 13:22 | 60.66858 | 5.35120 | 5625 ft | 237 kts | 276° |
| 2026-05-07 13:22 | 60.66884 | 5.31761 | 5334 ft | 234 kts | 252° |
| 2026-05-07 13:23 | 60.66136 | 5.28961 | 5100 ft | 227 kts | 224° |
| 2026-05-07 13:23 | 60.64826 | 5.27253 | 4854 ft | 223 kts | 197° |
| 2026-05-07 13:23 | 60.63301 | 5.26849 | 4596 ft | 221 kts | 179° |
| 2026-05-07 13:23 | 60.61759 | 5.26992 | 4368 ft | 224 kts | 176° |
| 2026-05-07 13:24 | 60.60195 | 5.27163 | 4082 ft | 225 kts | 177° |
| 2026-05-07 13:24 | 60.58662 | 5.27321 | 4038 ft | 217 kts | 177° |
| 2026-05-07 13:24 | 60.57169 | 5.27469 | 3986 ft | 213 kts | 177° |
| 2026-05-07 13:24 | 60.55701 | 5.27604 | 4016 ft | 214 kts | 177° |
| 2026-05-07 13:25 | 60.54200 | 5.27707 | 3998 ft | 213 kts | 178° |
| 2026-05-07 13:25 | 60.52767 | 5.27834 | 3964 ft | 196 kts | 177° |
| 2026-05-07 13:25 | 60.51465 | 5.27782 | 3984 ft | 182 kts | 195° |
| 2026-05-07 13:25 | 60.50440 | 5.26380 | 3903 ft | 183 kts | 225° |
| 2026-05-07 13:26 | 60.49686 | 5.24227 | 3647 ft | 189 kts | 238° |
| 2026-05-07 13:26 | 60.49051 | 5.21925 | 3485 ft | 187 kts | 239° |
| 2026-05-07 13:26 | 60.48417 | 5.19615 | 3349 ft | 190 kts | 238° |
| 2026-05-07 13:26 | 60.47736 | 5.17287 | 3053 ft | 189 kts | 230° |
| 2026-05-07 13:27 | 60.47058 | 5.16247 | 2926 ft | 184 kts | 197° |
| 2026-05-07 13:27 | 60.45839 | 5.16242 | 2932 ft | 175 kts | 167° |
| 2026-05-07 13:27 | 60.44637 | 5.16703 | 2915 ft | 175 kts | 172° |
| 2026-05-07 13:27 | 60.43443 | 5.17093 | 2872 ft | 173 kts | 171° |
| 2026-05-07 13:28 | 60.42267 | 5.17526 | 2880 ft | 178 kts | 170° |
| 2026-05-07 13:28 | 60.41045 | 5.17977 | 2508 ft | 181 kts | 171° |
| 2026-05-07 13:28 | 60.39818 | 5.18374 | 2267 ft | 173 kts | 172° |
| 2026-05-07 13:28 | 60.38651 | 5.18654 | 1984 ft | 165 kts | 174° |
| 2026-05-07 13:29 | 60.37546 | 5.19032 | 1696 ft | 157 kts | 169° |
| 2026-05-07 13:29 | 60.36488 | 5.19455 | 1560 ft | 155 kts | 174° |
| 2026-05-07 13:29 | 60.35435 | 5.19746 | 1368 ft | 152 kts | 171° |
| 2026-05-07 13:29 | 60.34395 | 5.20134 | 1132 ft | 152 kts | 171° |
| 2026-05-07 13:30 | 60.33335 | 5.20485 | 914 ft | 156 kts | 173° |
| 2026-05-07 13:30 | 60.32247 | 5.20844 | 588 ft | 157 kts | 171° |
| 2026-05-07 13:30 | 60.31220 | 5.21192 | 362 ft | 146 kts | 173° |
| 2026-05-07 13:30 | 60.30232 | 5.21524 | 189 ft | 137 kts | 174° |
| 2026-05-07 13:31 | 60.29524 | 5.21753 | 165 ft | 61 kts | 171° |
| 2026-05-07 13:31 | 60.29171 | 5.21871 | 164 ft | 42 kts | 171° |
| 2026-05-07 13:31 | 60.28989 | 5.21933 | 161 ft | 19 kts | 170° |
| 2026-05-07 13:31 | 60.28914 | 5.22050 | 160 ft | 11 kts | 94° |
| 2026-05-07 13:32 | 60.28922 | 5.22162 | 161 ft | 7 kts | 81° |
| 2026-05-07 13:32 | 60.28931 | 5.22276 | 161 ft | 9 kts | 80° |
| 2026-05-07 13:32 | 60.28918 | 5.22387 | 161 ft | 8 kts | 143° |
| 2026-05-07 13:32 | 60.28887 | 5.22456 | 160 ft | 7 kts | 93° |
| 2026-05-07 13:33 | 60.28889 | 5.22494 | 160 ft | 0 kts | 88° |